Time;durP1;ratioP1;P1;durP2;ratioP2;P2;SDS_P1;SDS_P2;PMS_P1;PMS_P2;Temp;Humidity;BMP_temperature;BMP_pressure;BME280_temperature;BME280_humidity;BME280_pressure;Samples;Min_cycle;Max_cycle;Signal;HPM_P1;HPM_P2
2022/03/09 00:02:02;;;;;;;0.00;0.00;;;4.10;64.90;;;;;;4102254;28;20540;-75
2022/03/09 00:04:27;;;;;;;0.00;0.00;;;4.20;65.10;;;;;;4075420;28;20052;-72
2022/03/09 00:06:49;;;;;;;0.00;0.00;;;4.10;65.20;;;;;;4102526;28;20051;-75
2022/03/09 00:09:13;;;;;;;0.00;0.00;;;4.20;65.20;;;;;;4089223;28;20433;-72
2022/03/09 00:11:38;;;;;;;0.00;0.00;;;4.20;65.30;;;;;;4115564;28;20049;-72
2022/03/09 00:14:03;;;;;;;0.00;0.00;;;4.10;65.50;;;;;;4102843;28;20081;-74
2022/03/09 00:16:25;;;;;;;0.00;0.00;;;4.10;65.70;;;;;;4075575;28;20058;-74
2022/03/09 00:18:49;;;;;;;0.00;0.00;;;4.10;65.80;;;;;;4102244;28;20529;-73
2022/03/09 00:21:14;;;;;;;0.00;0.00;;;4.10;65.90;;;;;;4102367;28;20043;-71
2022/03/09 00:23:38;;;;;;;0.00;0.00;;;4.10;66.40;;;;;;4102198;28;20047;-71
2022/03/09 00:26:01;;;;;;;0.00;0.00;;;4.00;66.50;;;;;;4102021;28;20050;-74
2022/03/09 00:28:29;;;;;;;0.00;0.00;;;4.00;67.50;;;;;;4085863;29;20482;-76
2022/03/09 00:30:58;;;;;;;0.00;0.00;;;3.90;67.90;;;;;;4073055;29;20180;-73
2022/03/09 00:33:20;;;;;;;0.00;0.00;;;3.90;68.10;;;;;;4086105;29;20044;-75
2022/03/09 00:35:45;;;;;;;0.00;0.00;;;3.80;68.20;;;;;;4086207;29;20120;-74
2022/03/09 00:38:07;;;;;;;0.00;0.00;;;3.80;68.60;;;;;;4102130;28;20051;-72
2022/03/09 00:40:29;;;;;;;0.00;0.00;;;3.60;69.70;;;;;;4102163;28;20046;-74
2022/03/09 00:42:53;;;;;;;0.00;0.00;;;3.60;70.10;;;;;;4102329;28;20485;-77
2022/03/09 00:45:17;;;;;;;0.00;0.00;;;3.70;70.10;;;;;;4115401;28;20093;-73
2022/03/09 00:47:41;;;;;;;0.00;0.00;;;3.60;70.10;;;;;;4088893;28;20063;-74
2022/03/09 00:50:05;;;;;;;0.00;0.00;;;3.60;70.30;;;;;;4102084;28;20083;-74
2022/03/09 00:52:27;;;;;;;0.00;0.00;;;3.60;70.40;;;;;;4062498;28;20135;-75
2022/03/09 00:54:49;;;;;;;0.00;0.00;;;3.70;70.40;;;;;;4101938;28;20047;-75
2022/03/09 00:57:14;;;;;;;0.00;0.00;;;3.70;70.60;;;;;;4102292;28;20798;-75
2022/03/09 00:59:35;;;;;;;0.00;0.00;;;3.70;70.70;;;;;;4115412;28;20038;-73
2022/03/09 01:02:00;;;;;;;0.00;0.00;;;3.70;70.70;;;;;;4088702;28;20104;-74
2022/03/09 01:04:27;;;;;;;0.00;0.00;;;3.70;70.60;;;;;;4087850;28;20139;-75
2022/03/09 01:06:56;;;;;;;0.00;0.00;;;3.70;70.50;;;;;;4118179;28;20047;-75
2022/03/09 01:09:27;;;;;;;0.00;0.00;;;3.60;70.60;;;;;;4119043;28;20442;-76
2022/03/09 01:11:51;;;;;;;0.00;0.00;;;3.60;70.50;;;;;;4092187;28;20117;-73
2022/03/09 01:14:16;;;;;;;0.00;0.00;;;3.60;70.60;;;;;;4104669;28;20055;-75
2022/03/09 01:16:39;;;;;;;0.00;0.00;;;3.60;70.60;;;;;;4105331;28;20038;-73
2022/03/09 01:19:03;;;;;;;0.00;0.00;;;3.50;70.60;;;;;;4119244;28;20058;-72
2022/03/09 01:21:30;;;;;;;0.00;0.00;;;3.60;70.60;;;;;;4118301;28;20129;-74
2022/03/09 01:23:55;;;;;;;0.00;0.00;;;3.60;70.60;;;;;;4119128;28;20039;-75
2022/03/09 01:26:21;;;;;;;0.00;0.00;;;3.50;70.80;;;;;;4090981;28;20051;-73
2022/03/09 01:28:49;;;;;;;0.00;0.00;;;3.50;70.90;;;;;;4104725;28;20093;-74
2022/03/09 01:31:15;;;;;;;0.00;0.00;;;3.50;70.90;;;;;;4105123;28;20058;-75
2022/03/09 01:33:40;;;;;;;0.00;0.00;;;3.50;70.90;;;;;;4091282;28;20055;-71
2022/03/09 01:36:03;;;;;;;0.00;0.00;;;3.50;71.00;;;;;;4104804;28;20386;-74
2022/03/09 01:38:27;;;;;;;0.00;0.00;;;3.40;71.50;;;;;;4118237;28;20043;-76
2022/03/09 01:40:49;;;;;;;0.00;0.00;;;3.40;71.60;;;;;;4117906;28;20065;-78
2022/03/09 01:43:24;;;;;;;0.00;0.00;;;3.40;71.70;;;;;;4104650;28;20061;-75
2022/03/09 01:46:00;;;;;;;0.00;0.00;;;3.40;72.10;;;;;;4118634;28;20050;-75
2022/03/09 01:48:27;;;;;;;0.00;0.00;;;3.40;72.00;;;;;;4104152;28;20055;-74
2022/03/09 01:50:53;;;;;;;0.00;0.00;;;3.40;71.90;;;;;;4104903;28;20054;-75
2022/03/09 01:53:18;;;;;;;0.00;0.00;;;3.50;71.70;;;;;;4104438;28;20057;-77
2022/03/09 01:55:46;;;;;;;0.00;0.00;;;3.50;71.60;;;;;;4118593;28;20054;-75
2022/03/09 01:58:23;;;;;;;0.00;0.00;;;3.60;71.40;;;;;;4105774;28;20051;-76
2022/03/09 02:00:47;;;;;;;0.00;0.00;;;3.50;71.50;;;;;;4118473;28;20074;-76
2022/03/09 02:03:20;;;;;;;0.00;0.00;;;3.50;71.30;;;;;;4105634;28;20074;-77
2022/03/09 02:05:55;;;;;;;0.00;0.00;;;3.50;71.60;;;;;;4105526;28;20062;-74
2022/03/09 02:11:22;;;;;;;0.00;0.00;;;3.30;71.70;;;;;;4117595;28;20112;-74
2022/03/09 02:13:54;;;;;;;0.00;0.00;;;3.30;71.80;;;;;;4105305;28;20468;-76
2022/03/09 02:16:18;;;;;;;0.00;0.00;;;3.40;71.90;;;;;;4077375;28;20058;-75
2022/03/09 02:18:41;;;;;;;0.00;0.00;;;3.40;71.90;;;;;;4090725;28;20052;-75
2022/03/09 02:21:10;;;;;;;0.00;0.00;;;3.40;71.80;;;;;;4090978;28;20221;-74
2022/03/09 02:23:35;;;;;;;0.00;0.00;;;3.40;72.00;;;;;;4077477;28;20048;-72
2022/03/09 02:25:57;;;;;;;0.00;0.00;;;3.40;72.30;;;;;;4117377;28;20038;-74
2022/03/09 02:28:20;;;;;;;0.00;0.00;;;3.40;72.10;;;;;;4087739;28;20525;-75
2022/03/09 02:30:42;;;;;;;0.00;0.00;;;3.30;72.00;;;;;;4075250;29;20048;-74
2022/03/09 02:33:05;;;;;;;0.00;0.00;;;3.30;72.30;;;;;;4088126;29;20044;-74
2022/03/09 02:35:32;;;;;;;0.00;0.00;;;3.30;72.10;;;;;;4101498;28;20443;-76
2022/03/09 02:37:54;;;;;;;0.00;0.00;;;3.30;72.00;;;;;;4088025;29;20099;-76
2022/03/09 02:40:17;;;;;;;0.00;0.00;;;3.30;71.90;;;;;;4089785;28;20048;-77
2022/03/09 02:42:42;;;;;;;0.00;0.00;;;3.30;71.60;;;;;;4103553;28;20036;-73
2022/03/09 02:45:07;;;;;;;0.00;0.00;;;3.40;72.30;;;;;;4103489;28;20043;-74
2022/03/09 02:47:29;;;;;;;0.00;0.00;;;3.30;71.40;;;;;;4090435;28;20426;-74
2022/03/09 02:49:54;;;;;;;0.00;0.00;;;3.30;71.10;;;;;;4103396;28;20047;-73
2022/03/09 02:52:18;;;;;;;0.00;0.00;;;3.20;71.10;;;;;;4103170;28;20051;-75
2022/03/09 02:54:40;;;;;;;0.00;0.00;;;3.20;71.10;;;;;;4116752;28;20122;-75
2022/03/09 02:57:05;;;;;;;0.00;0.00;;;3.20;71.10;;;;;;4090178;28;20055;-73
2022/03/09 02:59:32;;;;;;;0.00;0.00;;;3.20;71.20;;;;;;4090436;28;20044;-75
2022/03/09 03:01:54;;;;;;;0.00;0.00;;;3.20;71.10;;;;;;4103580;28;20039;-74
2022/03/09 03:04:16;;;;;;;0.00;0.00;;;3.20;71.00;;;;;;4086951;28;20174;-76
2022/03/09 03:06:41;;;;;;;0.00;0.00;;;3.20;70.90;;;;;;4074427;29;20051;-74
2022/03/09 03:09:05;;;;;;;0.00;0.00;;;3.20;70.90;;;;;;4095274;28;20512;-74
2022/03/09 03:11:30;;;;;;;0.00;0.00;;;3.20;70.90;;;;;;4116467;28;20047;-75
2022/03/09 03:13:52;;;;;;;0.00;0.00;;;3.20;71.10;;;;;;4116536;28;20042;-74
2022/03/09 03:16:15;;;;;;;0.00;0.00;;;3.10;71.10;;;;;;4102725;28;20126;-75
2022/03/09 03:18:38;;;;;;;0.00;0.00;;;3.10;71.20;;;;;;4103177;28;20051;-73
2022/03/09 03:21:00;;;;;;;0.00;0.00;;;3.10;71.20;;;;;;4102976;28;20118;-74
2022/03/09 03:23:24;;;;;;;0.00;0.00;;;3.00;71.20;;;;;;4079511;29;20063;-74
2022/03/09 03:25:46;;;;;;;0.00;0.00;;;3.00;71.30;;;;;;4100208;28;20047;-74
2022/03/09 03:28:08;;;;;;;0.00;0.00;;;2.90;71.30;;;;;;4102407;28;20055;-73
2022/03/09 03:30:32;;;;;;;0.00;0.00;;;3.00;71.30;;;;;;4102811;28;20047;-73
2022/03/09 03:32:54;;;;;;;0.00;0.00;;;3.00;71.10;;;;;;4102763;28;20051;-74
2022/03/09 03:35:20;;;;;;;0.00;0.00;;;3.00;71.10;;;;;;4102901;28;20541;-74
2022/03/09 03:37:43;;;;;;;0.00;0.00;;;3.00;71.00;;;;;;4102812;28;20050;-73
2022/03/09 03:40:05;;;;;;;0.00;0.00;;;3.00;71.20;;;;;;4102375;28;20051;-75
2022/03/09 03:42:28;;;;;;;0.00;0.00;;;3.00;71.30;;;;;;4102905;28;20462;-74
2022/03/09 03:44:50;;;;;;;0.00;0.00;;;2.90;71.30;;;;;;4116284;28;20061;-74
2022/03/09 03:47:17;;;;;;;0.00;0.00;;;3.00;71.20;;;;;;4076054;28;20063;-78
2022/03/09 03:49:41;;;;;;;0.00;0.00;;;2.90;71.20;;;;;;4089473;28;20066;-71
2022/03/09 03:52:03;;;;;;;0.00;0.00;;;2.90;71.30;;;;;;4102485;28;20106;-75
2022/03/09 03:54:27;;;;;;;0.00;0.00;;;3.00;71.50;;;;;;4086063;29;20051;-75
2022/03/09 03:56:54;;;;;;;0.00;0.00;;;3.00;71.50;;;;;;4092760;28;20051;-76
2022/03/09 03:59:19;;;;;;;0.00;0.00;;;3.00;71.70;;;;;;4076519;28;20119;-76
2022/03/09 04:01:43;;;;;;;0.00;0.00;;;2.90;71.90;;;;;;4102742;28;20053;-76
2022/03/09 04:04:05;;;;;;;0.00;0.00;;;2.90;72.30;;;;;;4089189;28;20135;-77
2022/03/09 04:06:30;;;;;;;0.00;0.00;;;2.80;72.80;;;;;;4115976;28;20050;-75
2022/03/09 04:08:57;;;;;;;0.00;0.00;;;2.80;72.90;;;;;;4102324;28;20039;-74
2022/03/09 04:11:20;;;;;;;0.00;0.00;;;2.90;73.00;;;;;;4102466;28;20248;-72
2022/03/09 04:13:44;;;;;;;0.00;0.00;;;2.80;73.00;;;;;;4102198;28;20474;-77
2022/03/09 04:16:09;;;;;;;0.00;0.00;;;2.90;73.20;;;;;;4101880;28;20106;-75
2022/03/09 04:18:32;;;;;;;0.00;0.00;;;2.80;73.50;;;;;;4102322;28;20046;-74
2022/03/09 04:20:57;;;;;;;0.00;0.00;;;2.70;73.70;;;;;;4102113;28;20122;-74
2022/03/09 04:23:21;;;;;;;0.00;0.00;;;2.70;73.80;;;;;;4102126;28;20043;-74
2022/03/09 04:25:45;;;;;;;0.00;0.00;;;2.60;74.00;;;;;;4102305;28;20382;-74
2022/03/09 04:28:10;;;;;;;0.00;0.00;;;2.70;74.10;;;;;;4101634;28;20141;-74
2022/03/09 04:30:35;;;;;;;0.00;0.00;;;2.60;74.20;;;;;;4102147;28;20039;-74
2022/03/09 04:32:59;;;;;;;0.00;0.00;;;2.70;74.50;;;;;;4102045;28;20058;-74
2022/03/09 04:35:23;;;;;;;0.00;0.00;;;2.70;74.40;;;;;;4089008;28;20083;-76
2022/03/09 04:37:45;;;;;;;0.00;0.00;;;2.70;74.50;;;;;;4088916;28;20062;-74
2022/03/09 04:40:08;;;;;;;0.00;0.00;;;2.70;74.50;;;;;;4114180;28;20442;-78
2022/03/09 04:42:33;;;;;;;0.00;0.00;;;2.70;74.40;;;;;;4088935;28;20525;-76
2022/03/09 04:44:55;;;;;;;0.00;0.00;;;2.70;74.30;;;;;;4089055;28;20534;-72
2022/03/09 04:47:20;;;;;;;0.00;0.00;;;2.60;74.80;;;;;;4089095;28;20410;-75
2022/03/09 04:49:42;;;;;;;0.00;0.00;;;2.60;74.90;;;;;;4075409;28;20446;-76
2022/03/09 04:52:07;;;;;;;0.00;0.00;;;2.60;75.00;;;;;;4101765;28;20054;-74
2022/03/09 04:54:29;;;;;;;0.00;0.00;;;2.70;75.00;;;;;;4115410;28;20062;-74
2022/03/09 04:56:54;;;;;;;0.00;0.00;;;2.70;75.00;;;;;;4102363;28;20055;-73
2022/03/09 04:59:18;;;;;;;0.00;0.00;;;2.70;75.00;;;;;;4102148;28;20047;-75
2022/03/09 05:01:43;;;;;;;0.00;0.00;;;2.60;74.90;;;;;;4099262;28;20051;-75
2022/03/09 05:04:05;;;;;;;0.00;0.00;;;2.70;74.90;;;;;;4086065;28;20099;-73
2022/03/09 05:06:29;;;;;;;0.00;0.00;;;2.70;74.80;;;;;;4073410;29;20083;-74
2022/03/09 05:08:53;;;;;;;0.00;0.00;;;2.70;75.00;;;;;;4060318;29;20127;-73
2022/03/09 05:11:18;;;;;;;0.00;0.00;;;2.70;75.20;;;;;;4086565;29;20483;-73
2022/03/09 05:13:46;;;;;;;0.00;0.00;;;2.70;75.10;;;;;;4069893;29;20495;-75
2022/03/09 05:16:11;;;;;;;0.00;0.00;;;2.70;75.20;;;;;;4085689;28;20127;-75
2022/03/09 05:18:37;;;;;;;0.00;0.00;;;2.70;75.20;;;;;;4090199;28;20435;-77
2022/03/09 05:21:03;;;;;;;0.00;0.00;;;2.60;75.30;;;;;;4102407;28;20062;-73
2022/03/09 05:23:30;;;;;;;0.00;0.00;;;2.60;75.40;;;;;;4102137;28;20102;-76
2022/03/09 05:25:55;;;;;;;0.00;0.00;;;2.60;75.40;;;;;;4115361;28;20541;-73
2022/03/09 05:28:17;;;;;;;0.00;0.00;;;2.60;75.60;;;;;;4086062;28;20059;-76
2022/03/09 05:30:41;;;;;;;0.00;0.00;;;2.60;75.50;;;;;;4099628;28;20048;-75
2022/03/09 05:33:03;;;;;;;0.00;0.00;;;2.60;75.50;;;;;;4059952;29;20063;-76
2022/03/09 05:35:25;;;;;;;0.00;0.00;;;2.60;75.50;;;;;;4073001;29;20068;-76
2022/03/09 05:37:47;;;;;;;0.00;0.00;;;2.60;75.40;;;;;;4073080;29;20078;-74
2022/03/09 05:40:10;;;;;;;0.00;0.00;;;2.50;75.80;;;;;;4075073;28;20607;-75
2022/03/09 05:42:36;;;;;;;0.00;0.00;;;2.60;76.00;;;;;;4102061;28;20370;-78
2022/03/09 05:44:58;;;;;;;0.00;0.00;;;2.40;76.20;;;;;;4075620;28;20099;-77
2022/03/09 05:47:40;;;;;;;0.00;0.00;;;2.50;76.50;;;;;;4104849;28;20054;-76
2022/03/09 05:50:03;;;;;;;0.00;0.00;;;2.50;76.50;;;;;;4088912;28;20047;-73
2022/03/09 05:52:25;;;;;;;0.00;0.00;;;2.40;76.50;;;;;;4089819;28;20510;-76
2022/03/09 05:54:52;;;;;;;0.00;0.00;;;2.40;76.70;;;;;;4091775;28;20051;-73
2022/03/09 05:57:22;;;;;;;0.00;0.00;;;2.40;77.10;;;;;;4091650;28;20080;-78
2022/03/09 05:59:44;;;;;;;0.00;0.00;;;2.30;77.40;;;;;;4104578;28;20058;-80
2022/03/09 06:02:06;;;;;;;0.00;0.00;;;2.40;77.40;;;;;;4062308;28;20124;-75
2022/03/09 06:04:28;;;;;;;0.00;0.00;;;2.40;77.30;;;;;;4088761;29;20047;-76
2022/03/09 06:06:50;;;;;;;0.00;0.00;;;2.40;77.60;;;;;;4094747;28;20054;-78
2022/03/09 06:09:12;;;;;;;0.00;0.00;;;2.40;77.90;;;;;;4118306;28;20054;-74
2022/03/09 06:11:36;;;;;;;0.00;0.00;;;2.50;77.80;;;;;;4118166;28;20043;-77
2022/03/09 06:13:58;;;;;;;0.00;0.00;;;2.60;77.80;;;;;;4104719;28;20524;-75
2022/03/09 06:16:20;;;;;;;0.00;0.00;;;2.60;77.80;;;;;;4091089;28;20054;-72
2022/03/09 06:18:46;;;;;;;0.00;0.00;;;2.60;78.20;;;;;;4104447;28;20106;-78
2022/03/09 06:21:10;;;;;;;0.00;0.00;;;2.70;78.20;;;;;;4091248;28;20430;-71
2022/03/09 06:23:37;;;;;;;0.00;0.00;;;2.80;78.10;;;;;;4104162;28;20043;-72
2022/03/09 06:26:01;;;;;;;0.00;0.00;;;3.00;77.50;;;;;;4077957;28;20051;-69
2022/03/09 06:28:27;;;;;;;0.00;0.00;;;3.20;77.20;;;;;;4105984;28;20061;-69
2022/03/09 06:30:52;;;;;;;0.00;0.00;;;3.40;77.20;;;;;;4104497;28;20057;-70
2022/03/09 06:33:17;;;;;;;0.00;0.00;;;3.60;77.00;;;;;;4104313;28;20475;-70
2022/03/09 06:35:43;;;;;;;0.00;0.00;;;3.70;76.40;;;;;;4104186;28;20134;-72
2022/03/09 06:38:06;;;;;;;0.00;0.00;;;3.80;76.20;;;;;;4120345;28;20358;-70
2022/03/09 06:40:37;;;;;;;0.00;0.00;;;3.90;76.10;;;;;;4119997;28;20050;-69
2022/03/09 06:43:00;;;;;;;0.00;0.00;;;4.20;75.80;;;;;;4106622;28;20047;-70
2022/03/09 06:45:24;;;;;;;0.00;0.00;;;4.30;75.20;;;;;;4120400;28;20050;-70
2022/03/09 06:47:46;;;;;;;0.00;0.00;;;4.50;75.10;;;;;;4117537;28;20047;-71
2022/03/09 06:50:09;;;;;;;0.00;0.00;;;4.70;74.70;;;;;;4117198;28;20054;-69
2022/03/09 06:52:39;;;;;;;0.00;0.00;;;4.80;74.50;;;;;;4104336;28;20054;-71
2022/03/09 06:55:07;;;;;;;0.00;0.00;;;5.00;73.90;;;;;;4104173;28;20099;-71
2022/03/09 06:57:33;;;;;;;0.00;0.00;;;5.00;73.50;;;;;;4103938;28;20043;-69
2022/03/09 07:00:02;;;;;;;0.00;0.00;;;5.10;72.90;;;;;;4103922;28;20051;-69
2022/03/09 07:02:24;;;;;;;0.00;0.00;;;5.20;73.20;;;;;;4103706;28;20047;-71
2022/03/09 07:04:51;;;;;;;0.00;0.00;;;5.30;73.40;;;;;;4103270;28;20141;-69
2022/03/09 07:07:13;;;;;;;0.00;0.00;;;5.50;73.30;;;;;;4103294;28;20047;-70
2022/03/09 07:09:38;;;;;;;0.00;0.00;;;5.70;73.00;;;;;;4102324;28;20382;-69
2022/03/09 07:12:00;;;;;;;0.00;0.00;;;6.00;72.70;;;;;;4116844;28;20458;-70
2022/03/09 07:14:26;;;;;;;0.00;0.00;;;6.10;72.60;;;;;;4103197;28;20062;-69
2022/03/09 07:16:49;;;;;;;0.00;0.00;;;6.30;72.20;;;;;;4083481;28;20054;-71
2022/03/09 07:19:11;;;;;;;0.00;0.00;;;6.30;71.80;;;;;;4119203;28;20050;-71
2022/03/09 07:21:38;;;;;;;0.00;0.00;;;6.20;71.50;;;;;;4119751;28;20450;-70
2022/03/09 07:24:00;;;;;;;0.00;0.00;;;6.00;72.20;;;;;;4119332;28;20130;-71
2022/03/09 07:26:22;;;;;;;0.00;0.00;;;6.20;72.30;;;;;;4118807;28;20106;-70
2022/03/09 07:28:46;;;;;;;0.00;0.00;;;6.40;71.70;;;;;;4119139;28;20050;-70
2022/03/09 07:31:11;;;;;;;0.00;0.00;;;6.30;71.80;;;;;;4105592;28;20066;-73
2022/03/09 07:33:35;;;;;;;0.00;0.00;;;6.20;71.40;;;;;;4105987;28;20050;-72
2022/03/09 07:36:04;;;;;;;0.00;0.00;;;6.10;71.50;;;;;;4132567;28;20078;-71
2022/03/09 07:38:27;;;;;;;0.00;0.00;;;6.30;71.40;;;;;;4116064;28;20137;-70
2022/03/09 07:40:49;;;;;;;0.00;0.00;;;6.40;71.20;;;;;;4103210;28;20055;-70
2022/03/09 07:43:12;;;;;;;0.00;0.00;;;6.70;69.70;;;;;;4103227;28;20082;-72
2022/03/09 07:45:41;;;;;;;0.00;0.00;;;7.10;69.30;;;;;;4090564;28;20059;-70
2022/03/09 07:48:03;;;;;;;0.00;0.00;;;7.50;68.00;;;;;;4089735;28;20048;-73
2022/03/09 07:50:27;;;;;;;0.00;0.00;;;7.40;67.40;;;;;;4102309;28;20055;-70
2022/03/09 07:52:52;;;;;;;0.00;0.00;;;7.50;67.40;;;;;;4083627;28;20530;-70
2022/03/09 07:55:16;;;;;;;0.00;0.00;;;7.60;66.70;;;;;;4102979;28;20138;-71
2022/03/09 07:57:41;;;;;;;0.00;0.00;;;7.30;67.50;;;;;;4103223;28;20109;-69
2022/03/09 08:00:04;;;;;;;0.00;0.00;;;7.30;68.00;;;;;;4089434;28;20087;-70
2022/03/09 08:02:32;;;;;;;0.00;0.00;;;7.90;68.10;;;;;;4102485;28;20115;-72
2022/03/09 08:04:56;;;;;;;0.00;0.00;;;8.60;66.90;;;;;;4089465;28;20056;-72
2022/03/09 08:07:18;;;;;;;0.00;0.00;;;9.20;64.90;;;;;;4102566;28;20095;-69
2022/03/09 08:09:40;;;;;;;0.00;0.00;;;9.50;63.70;;;;;;4089434;28;20044;-71
2022/03/09 08:12:03;;;;;;;0.00;0.00;;;9.10;63.60;;;;;;4089316;28;20057;-76
2022/03/09 08:14:27;;;;;;;0.00;0.00;;;8.40;64.80;;;;;;4104990;28;20130;-70
2022/03/09 08:16:50;;;;;;;0.00;0.00;;;8.60;64.80;;;;;;4118616;28;20529;-69
2022/03/09 08:19:12;;;;;;;0.00;0.00;;;9.00;64.60;;;;;;4118455;28;20517;-71
2022/03/09 08:21:34;;;;;;;0.00;0.00;;;9.70;63.70;;;;;;4115652;28;20042;-76
2022/03/09 08:23:56;;;;;;;0.00;0.00;;;10.20;61.60;;;;;;4102548;28;20059;-70
2022/03/09 08:26:23;;;;;;;0.00;0.00;;;10.40;60.60;;;;;;4102404;28;20134;-71
2022/03/09 08:28:48;;;;;;;0.00;0.00;;;10.50;59.70;;;;;;4115981;28;20162;-70
2022/03/09 08:31:15;;;;;;;0.00;0.00;;;10.90;59.80;;;;;;4102468;28;20043;-70
2022/03/09 08:33:40;;;;;;;0.00;0.00;;;11.10;59.10;;;;;;4102565;28;20054;-69
2022/03/09 08:36:04;;;;;;;0.00;0.00;;;11.60;58.30;;;;;;4075979;28;20060;-70
2022/03/09 08:38:26;;;;;;;0.00;0.00;;;11.50;58.00;;;;;;4101815;28;20086;-69
2022/03/09 08:40:49;;;;;;;0.00;0.00;;;11.60;57.80;;;;;;4102227;28;20046;-70
2022/03/09 08:43:15;;;;;;;0.00;0.00;;;11.60;57.50;;;;;;4102475;28;20069;-70
2022/03/09 08:45:39;;;;;;;0.00;0.00;;;11.90;56.60;;;;;;4115341;28;20378;-70
2022/03/09 08:48:01;;;;;;;0.00;0.00;;;11.40;57.40;;;;;;4102053;28;20106;-71
2022/03/09 08:50:25;;;;;;;0.00;0.00;;;11.70;57.40;;;;;;4117754;28;20039;-68
2022/03/09 08:52:59;;;;;;;0.00;0.00;;;12.20;56.60;;;;;;4118205;28;20074;-70
2022/03/09 08:55:21;;;;;;;0.00;0.00;;;12.60;55.90;;;;;;4104672;28;20205;-69
2022/03/09 08:57:44;;;;;;;0.00;0.00;;;13.00;54.80;;;;;;4115346;28;20047;-73
2022/03/09 09:00:06;;;;;;;0.00;0.00;;;12.80;54.30;;;;;;4118045;28;20401;-73
2022/03/09 09:02:32;;;;;;;0.00;0.00;;;12.90;54.10;;;;;;4117984;28;20050;-72
2022/03/09 09:04:56;;;;;;;0.00;0.00;;;13.20;53.30;;;;;;4104827;28;20062;-69
2022/03/09 09:07:21;;;;;;;0.00;0.00;;;12.90;52.80;;;;;;4101976;28;20047;-72
2022/03/09 09:09:48;;;;;;;0.00;0.00;;;12.80;53.20;;;;;;4115448;28;20043;-72
2022/03/09 09:12:12;;;;;;;0.00;0.00;;;12.80;53.50;;;;;;4101666;28;20046;-71
2022/03/09 09:14:36;;;;;;;0.00;0.00;;;12.40;52.60;;;;;;4089290;28;20047;-71
2022/03/09 09:17:03;;;;;;;0.00;0.00;;;11.60;53.80;;;;;;4102184;28;20051;-69
2022/03/09 09:19:50;;;;;;;0.00;0.00;;;11.50;54.70;;;;;;4088807;28;20099;-69
2022/03/09 09:22:15;;;;;;;0.00;0.00;;;11.90;53.60;;;;;;4117873;28;20053;-68
2022/03/09 09:24:37;;;;;;;0.00;0.00;;;11.50;54.50;;;;;;4115421;28;20039;-70
2022/03/09 09:27:03;;;;;;;0.00;0.00;;;12.00;53.50;;;;;;4076485;28;20058;-71
2022/03/09 09:29:25;;;;;;;0.00;0.00;;;12.50;51.90;;;;;;4105040;28;20055;-71
2022/03/09 09:31:51;;;;;;;0.00;0.00;;;12.50;51.10;;;;;;4105179;28;20400;-69
2022/03/09 09:34:17;;;;;;;0.00;0.00;;;12.40;50.70;;;;;;4091180;28;20055;-72
2022/03/09 09:36:46;;;;;;;0.00;0.00;;;12.40;50.70;;;;;;4105242;28;20056;-69
2022/03/09 09:39:08;;;;;;;0.00;0.00;;;12.10;50.70;;;;;;4104865;28;20433;-70
2022/03/09 09:41:36;;;;;;;0.00;0.00;;;11.90;51.40;;;;;;4103522;28;20146;-70
2022/03/09 09:44:01;;;;;;;0.00;0.00;;;12.30;52.20;;;;;;4105342;28;20141;-71
2022/03/09 09:46:23;;;;;;;0.00;0.00;;;13.00;50.40;;;;;;4104166;28;20055;-70
2022/03/09 09:48:50;;;;;;;0.00;0.00;;;12.60;50.70;;;;;;4091425;28;20122;-69
2022/03/09 09:51:15;;;;;;;0.00;0.00;;;13.50;50.20;;;;;;4118229;28;20058;-72
2022/03/09 09:53:44;;;;;;;0.00;0.00;;;14.20;48.20;;;;;;4104711;28;20062;-70
2022/03/09 09:56:07;;;;;;;0.00;0.00;;;14.60;47.70;;;;;;4090977;28;20130;-69
2022/03/09 09:58:30;;;;;;;0.00;0.00;;;14.90;46.40;;;;;;4091566;28;20071;-68
2022/03/09 10:00:55;;;;;;;0.00;0.00;;;14.80;46.00;;;;;;4104831;28;20057;-71
2022/03/09 10:03:17;;;;;;;0.00;0.00;;;14.50;44.70;;;;;;4104869;28;20378;-69
2022/03/09 10:05:40;;;;;;;0.00;0.00;;;13.30;46.10;;;;;;4117885;28;20137;-70
2022/03/09 10:08:07;;;;;;;0.00;0.00;;;12.40;47.30;;;;;;4104706;28;20055;-70
2022/03/09 10:10:55;;;;;;;0.00;0.00;;;12.10;48.90;;;;;;4120200;28;20047;-71
2022/03/09 10:13:23;;;;;;;0.00;0.00;;;12.20;48.40;;;;;;4133944;28;20081;-69
2022/03/09 10:16:05;;;;;;;0.00;0.00;;;12.10;50.20;;;;;;4107316;28;20062;-68
2022/03/09 10:18:28;;;;;;;0.00;0.00;;;13.40;49.20;;;;;;4106554;28;20059;-71
2022/03/09 10:20:52;;;;;;;0.00;0.00;;;14.80;47.50;;;;;;4120152;28;20056;-70
2022/03/09 10:23:22;;;;;;;0.00;0.00;;;15.40;45.70;;;;;;4120221;28;20150;-69
2022/03/09 10:25:59;;;;;;;0.00;0.00;;;15.70;43.70;;;;;;4120068;28;20080;-70
2022/03/09 10:28:23;;;;;;;0.00;0.00;;;16.30;42.20;;;;;;4119904;28;20076;-71
2022/03/09 10:30:45;;;;;;;0.00;0.00;;;16.90;41.00;;;;;;4106577;28;20047;-70
2022/03/09 10:33:15;;;;;;;0.00;0.00;;;17.30;40.50;;;;;;4117377;28;20072;-69
2022/03/09 10:35:49;;;;;;;0.00;0.00;;;17.70;40.00;;;;;;4090995;28;20039;-71
2022/03/09 10:38:17;;;;;;;0.00;0.00;;;18.00;39.60;;;;;;4133082;28;20046;-69
2022/03/09 10:40:42;;;;;;;0.00;0.00;;;18.10;38.30;;;;;;4120224;28;20035;-70
2022/03/09 10:43:13;;;;;;;0.00;0.00;;;18.00;38.00;;;;;;4106440;28;20051;-72
2022/03/09 10:45:36;;;;;;;0.00;0.00;;;18.30;37.10;;;;;;4093391;28;20059;-69
2022/03/09 10:48:00;;;;;;;0.00;0.00;;;17.90;35.60;;;;;;4080882;28;20090;-70
2022/03/09 10:50:28;;;;;;;0.00;0.00;;;17.70;36.80;;;;;;4106133;28;20055;-69
2022/03/09 10:52:52;;;;;;;0.00;0.00;;;18.10;35.70;;;;;;4119809;28;20060;-67
2022/03/09 10:55:26;;;;;;;0.00;0.00;;;18.80;35.80;;;;;;4103878;28;20469;-72
2022/03/09 10:57:50;;;;;;;0.00;0.00;;;19.10;35.40;;;;;;4103624;28;20054;-67
2022/03/09 11:00:16;;;;;;;0.00;0.00;;;18.80;34.70;;;;;;4090188;28;20146;-72
2022/03/09 11:02:49;;;;;;;0.00;0.00;;;17.80;35.50;;;;;;4103558;28;20066;-68
2022/03/09 11:05:17;;;;;;;0.00;0.00;;;17.70;36.10;;;;;;4103787;28;20495;-69
2022/03/09 11:07:41;;;;;;;0.00;0.00;;;17.30;36.20;;;;;;4090193;28;20438;-66
2022/03/09 11:10:12;;;;;;;0.00;0.00;;;16.70;36.10;;;;;;4090123;28;20130;-67
2022/03/09 11:12:38;;;;;;;0.00;0.00;;;16.30;37.20;;;;;;4103158;28;20058;-68
2022/03/09 11:15:03;;;;;;;0.00;0.00;;;16.30;37.00;;;;;;4103868;28;20039;-69
2022/03/09 11:17:29;;;;;;;0.00;0.00;;;16.00;37.40;;;;;;4105384;28;20393;-71
2022/03/09 11:19:54;;;;;;;0.00;0.00;;;15.70;38.10;;;;;;4104624;28;20051;-68
2022/03/09 11:22:18;;;;;;;0.00;0.00;;;15.60;37.40;;;;;;4104833;28;20059;-69
2022/03/09 11:24:43;;;;;;;0.00;0.00;;;15.30;37.50;;;;;;4091413;28;20529;-67
2022/03/09 11:27:09;;;;;;;0.00;0.00;;;15.70;36.60;;;;;;4118982;28;20047;-68
2022/03/09 11:29:35;;;;;;;0.00;0.00;;;15.80;35.90;;;;;;4105932;28;20058;-68
2022/03/09 11:32:00;;;;;;;0.00;0.00;;;15.70;35.90;;;;;;4089960;28;20055;-68
2022/03/09 11:34:37;;;;;;;0.00;0.00;;;15.40;36.60;;;;;;4096134;29;20047;-68
2022/03/09 11:37:04;;;;;;;0.00;0.00;;;15.70;36.40;;;;;;4094792;28;20044;-68
2022/03/09 11:39:29;;;;;;;0.00;0.00;;;16.70;36.10;;;;;;4114382;28;20059;-72
2022/03/09 11:42:23;;;;;;;0.00;0.00;;;18.00;34.30;;;;;;4132621;28;20050;-70
2022/03/09 11:44:52;;;;;;;0.00;0.00;;;19.40;33.50;;;;;;4118673;28;20054;-74
2022/03/09 11:47:16;;;;;;;0.00;0.00;;;19.80;32.70;;;;;;4119675;28;20035;-73
2022/03/09 11:49:52;;;;;;;0.00;0.00;;;18.90;33.60;;;;;;4092853;28;20055;-71
2022/03/09 11:52:31;;;;;;;0.00;0.00;;;17.80;35.00;;;;;;4092509;28;20431;-69
2022/03/09 11:54:55;;;;;;;0.00;0.00;;;17.10;36.10;;;;;;4119528;28;20058;-70
2022/03/09 11:57:22;;;;;;;0.00;0.00;;;18.30;35.80;;;;;;4119769;28;20051;-71
2022/03/09 12:00:10;;;;;;;0.00;0.00;;;19.90;33.90;;;;;;4105654;28;20047;-74
2022/03/09 12:02:57;;;;;;;0.00;0.00;;;20.90;30.00;;;;;;4118981;28;20357;-70
2022/03/09 12:05:27;;;;;;;0.00;0.00;;;20.90;30.00;;;;;;4132362;28;20152;-68
2022/03/09 12:07:55;;;;;;;0.00;0.00;;;21.60;29.80;;;;;;4132129;28;20600;-68
2022/03/09 12:10:24;;;;;;;0.00;0.00;;;22.30;29.60;;;;;;4104883;28;20051;-73
2022/03/09 12:13:08;;;;;;;0.00;0.00;;;22.70;29.30;;;;;;4118619;28;20051;-71
2022/03/09 12:15:52;;;;;;;0.00;0.00;;;22.70;29.00;;;;;;4132074;28;20042;-69
2022/03/09 12:18:36;;;;;;;0.00;0.00;;;23.00;28.90;;;;;;4118211;28;20473;-69
2022/03/09 12:21:01;;;;;;;0.00;0.00;;;23.40;28.40;;;;;;4105506;28;20047;-71
2022/03/09 12:23:23;;;;;;;0.00;0.00;;;21.80;29.70;;;;;;4105288;28;20105;-72
2022/03/09 12:25:50;;;;;;;0.00;0.00;;;20.70;30.40;;;;;;4118512;28;20119;-69
2022/03/09 12:28:31;;;;;;;0.00;0.00;;;21.40;30.90;;;;;;4104540;28;20061;-68
2022/03/09 12:30:59;;;;;;;0.00;0.00;;;22.60;30.00;;;;;;4118504;28;20435;-73
2022/03/09 12:33:28;;;;;;;0.00;0.00;;;23.50;29.40;;;;;;4104987;28;20061;-69
2022/03/09 12:36:04;;;;;;;0.00;0.00;;;24.00;29.10;;;;;;4131910;28;20432;-70
2022/03/09 12:39:04;;;;;;;0.00;0.00;;;24.30;28.70;;;;;;4102012;28;20102;-74
2022/03/09 12:41:26;;;;;;;0.00;0.00;;;24.60;28.30;;;;;;4102101;28;20054;-72
2022/03/09 12:43:50;;;;;;;0.00;0.00;;;24.90;28.00;;;;;;4116154;28;20046;-69
2022/03/09 12:46:12;;;;;;;0.00;0.00;;;24.80;28.50;;;;;;4089396;28;20056;-70
2022/03/09 12:48:41;;;;;;;0.00;0.00;;;24.50;28.20;;;;;;4118581;28;20465;-70